createdAt,value
2022-09-10T00:01:29.556Z,12.50
2022-09-10T00:03:58.153Z,12.50
2022-09-10T00:06:28.626Z,12.50
2022-09-10T00:08:58.470Z,12.50
2022-09-10T00:11:30.900Z,12.40
2022-09-10T00:14:00.228Z,12.50
2022-09-10T00:16:29.409Z,12.40
2022-09-10T00:18:58.431Z,12.40
2022-09-10T00:21:30.068Z,12.40
2022-09-10T00:23:59.486Z,12.50
2022-09-10T00:26:28.915Z,12.50
2022-09-10T00:28:59.559Z,12.50
2022-09-10T00:31:28.683Z,12.40
2022-09-10T00:33:57.298Z,12.40
2022-09-10T00:36:26.782Z,12.30
2022-09-10T00:38:59.655Z,12.40
2022-09-10T00:41:28.698Z,12.30
2022-09-10T00:43:58.087Z,12.40
2022-09-10T00:46:30.374Z,12.40
2022-09-10T00:49:00.006Z,12.40
2022-09-10T00:51:31.212Z,12.40
2022-09-10T00:54:01.577Z,12.30
2022-09-10T00:56:31.144Z,12.30
2022-09-10T00:59:00.248Z,12.30
2022-09-10T01:01:29.033Z,12.30
2022-09-10T01:03:57.698Z,12.30
2022-09-10T01:06:27.235Z,12.20
2022-09-10T01:08:55.792Z,12.20
2022-09-10T01:11:35.007Z,12.20
2022-09-10T01:14:09.871Z,12.20
2022-09-10T01:16:41.354Z,12.30
2022-09-10T01:19:18.535Z,12.30
2022-09-10T01:21:53.376Z,12.30
2022-09-10T01:24:35.425Z,12.30
2022-09-10T01:27:15.946Z,12.30
2022-09-10T01:29:48.696Z,12.30
2022-09-10T01:32:19.793Z,12.20
2022-09-10T01:34:55.524Z,12.20
2022-09-10T01:37:26.724Z,12.20
2022-09-10T01:39:56.726Z,12.20
2022-09-10T01:42:27.010Z,12.20
2022-09-10T01:44:59.966Z,12.20
2022-09-10T01:47:39.347Z,12.10
2022-09-10T01:50:13.391Z,12.10
2022-09-10T01:52:46.782Z,12.10
2022-09-10T01:55:23.880Z,12.10
2022-09-10T01:57:55.584Z,12.10
2022-09-10T02:00:30.407Z,12.00
2022-09-10T02:03:00.889Z,12.10
2022-09-10T02:05:35.217Z,12.10
2022-09-10T02:08:09.785Z,12.00
2022-09-10T02:10:48.898Z,12.10
2022-09-10T02:13:17.532Z,12.10
2022-09-10T02:16:03.355Z,12.10
2022-09-10T02:18:40.350Z,12.10
2022-09-10T02:21:10.125Z,12.10
2022-09-10T02:23:42.590Z,12.10
2022-09-10T02:26:11.388Z,12.10
2022-09-10T02:28:40.563Z,12.10
2022-09-10T02:31:10.630Z,12.10
2022-09-10T02:33:39.559Z,12.00
2022-09-10T02:36:08.427Z,12.10
2022-09-10T02:38:37.361Z,12.00
2022-09-10T02:41:06.610Z,12.00
2022-09-10T02:43:38.289Z,12.10
2022-09-10T02:46:08.069Z,12.00
2022-09-10T02:48:40.300Z,12.00
2022-09-10T02:51:10.529Z,12.00
2022-09-10T02:53:40.265Z,12.00
2022-09-10T02:56:09.764Z,12.00
2022-09-10T02:58:38.931Z,12.00
2022-09-10T03:01:09.251Z,12.00
2022-09-10T03:03:40.302Z,12.00
2022-09-10T03:06:09.409Z,12.00
2022-09-10T03:08:38.214Z,12.00
2022-09-10T03:11:07.167Z,12.00
2022-09-10T03:13:36.201Z,12.00
2022-09-10T03:16:05.118Z,12.00
2022-09-10T03:18:35.507Z,12.00
2022-09-10T03:21:13.192Z,12.00
2022-09-10T03:23:42.111Z,12.00
2022-09-10T03:26:12.070Z,12.00
2022-09-10T03:28:41.114Z,12.00
2022-09-10T03:31:13.804Z,12.00
2022-09-10T03:33:47.258Z,12.00
2022-09-10T03:36:18.069Z,11.90
2022-09-10T03:38:49.317Z,11.90
2022-09-10T03:41:17.982Z,11.90
2022-09-10T03:43:47.661Z,11.90
2022-09-10T03:46:17.150Z,11.90
2022-09-10T03:48:52.037Z,11.90
2022-09-10T03:51:27.538Z,11.90
2022-09-10T03:53:59.025Z,11.90
2022-09-10T03:56:27.768Z,11.90
2022-09-10T03:58:56.979Z,11.90
2022-09-10T04:01:28.387Z,11.90
2022-09-10T04:03:58.323Z,12.00
2022-09-10T04:06:32.338Z,11.90
2022-09-10T04:09:01.358Z,12.00
2022-09-10T04:11:30.813Z,12.00
2022-09-10T04:14:00.235Z,11.80
2022-09-10T04:16:31.064Z,11.90
2022-09-10T04:18:59.799Z,11.90
2022-09-10T04:21:31.639Z,10.20
2022-09-10T04:24:00.835Z,12.00
2022-09-10T04:26:30.606Z,12.00
2022-09-10T04:28:59.402Z,12.00
2022-09-10T04:31:28.024Z,12.00
2022-09-10T04:34:02.455Z,11.90
2022-09-10T04:36:33.995Z,11.90
2022-09-10T04:39:03.641Z,12.00
2022-09-10T04:41:33.674Z,12.00
2022-09-10T04:44:02.481Z,12.00
2022-09-10T04:46:31.312Z,12.00
2022-09-10T04:49:01.396Z,12.00
2022-09-10T04:51:30.363Z,12.00
2022-09-10T04:54:00.523Z,12.00
2022-09-10T04:56:34.860Z,12.00
2022-09-10T04:59:03.544Z,12.00
2022-09-10T05:01:35.755Z,12.00
2022-09-10T05:04:04.852Z,12.10
2022-09-10T05:06:35.180Z,12.00
2022-09-10T05:09:06.592Z,12.00
2022-09-10T05:11:36.781Z,12.00
2022-09-10T05:14:05.842Z,12.10
2022-09-10T05:16:34.480Z,12.10
2022-09-10T05:19:04.118Z,12.10
2022-09-10T05:21:36.534Z,12.20
2022-09-10T05:24:06.805Z,12.20
2022-09-10T05:26:35.938Z,12.30
2022-09-10T05:29:04.685Z,12.30
2022-09-10T05:31:33.989Z,12.20
2022-09-10T05:34:03.258Z,12.30
2022-09-10T05:36:33.250Z,12.30
2022-09-10T05:39:03.206Z,12.30
2022-09-10T05:41:35.112Z,12.40
2022-09-10T05:44:04.144Z,12.40
2022-09-10T05:46:33.329Z,12.50
2022-09-10T05:49:10.206Z,12.50
2022-09-10T05:51:38.890Z,12.50
2022-09-10T05:54:08.910Z,12.50
2022-09-10T05:56:39.722Z,12.50
2022-09-10T05:59:10.686Z,12.50
2022-09-10T06:01:45.423Z,12.50
2022-09-10T06:04:14.078Z,12.50
2022-09-10T06:06:42.960Z,12.50
2022-09-10T06:09:14.082Z,12.50
2022-09-10T06:11:52.179Z,12.50
2022-09-10T06:14:21.909Z,12.60
2022-09-10T06:16:52.189Z,12.60
2022-09-10T06:19:21.585Z,12.60
2022-09-10T06:21:52.424Z,12.60
2022-09-10T06:24:22.623Z,13.50
2022-09-10T06:26:54.870Z,12.60
2022-09-10T06:29:25.720Z,12.70
2022-09-10T06:31:54.453Z,12.70
2022-09-10T06:34:23.109Z,12.80
2022-09-10T06:36:53.311Z,12.90
2022-09-10T06:39:22.348Z,12.90
2022-09-10T06:41:56.505Z,12.90
2022-09-10T06:44:46.276Z,12.90
2022-09-10T06:50:25.532Z,12.90
2022-09-10T06:52:58.005Z,13.00
2022-09-10T06:55:27.129Z,13.00
2022-09-10T06:57:57.102Z,13.10
2022-09-10T07:00:25.896Z,13.20
2022-09-10T07:02:56.693Z,13.30
2022-09-10T07:05:28.721Z,13.30
2022-09-10T07:07:57.680Z,13.30
2022-09-10T07:10:27.728Z,13.30
2022-09-10T07:12:57.942Z,13.40
2022-09-10T07:15:26.544Z,13.40
2022-09-10T07:17:55.202Z,13.40
2022-09-10T07:20:28.648Z,13.40
2022-09-10T07:22:58.752Z,13.50
2022-09-10T07:25:29.299Z,13.50
2022-09-10T07:28:06.632Z,13.50
2022-09-10T07:30:38.040Z,13.50
2022-09-10T07:33:06.753Z,13.50
2022-09-10T07:35:36.417Z,13.50
2022-09-10T07:38:06.935Z,13.40
2022-09-10T07:40:40.485Z,13.40
2022-09-10T07:43:10.713Z,13.40
2022-09-10T07:45:41.766Z,13.40
2022-09-10T07:48:12.023Z,13.40
2022-09-10T07:50:41.158Z,13.40
2022-09-10T07:53:09.991Z,13.40
2022-09-10T07:55:39.667Z,13.50
2022-09-10T07:58:10.235Z,13.50
2022-09-10T08:00:44.457Z,13.50
2022-09-10T08:03:13.559Z,13.50
2022-09-10T08:05:42.256Z,13.50
2022-09-10T08:08:13.525Z,13.50
2022-09-10T08:10:42.287Z,13.60
2022-09-10T08:13:13.006Z,13.50
2022-09-10T08:15:42.776Z,13.50
2022-09-10T08:18:12.257Z,13.50
2022-09-10T08:20:41.233Z,13.60
2022-09-10T08:23:10.842Z,13.50
2022-09-10T08:25:40.288Z,13.50
2022-09-10T08:28:10.593Z,13.50
2022-09-10T08:30:41.589Z,13.50
2022-09-10T08:33:11.075Z,13.40
2022-09-10T08:35:41.402Z,13.50
2022-09-10T08:38:10.888Z,13.40
2022-09-10T08:40:42.441Z,13.40
2022-09-10T08:43:12.636Z,13.50
2022-09-10T08:45:52.077Z,13.50
2022-09-10T08:48:23.685Z,13.50
2022-09-10T08:50:56.639Z,13.50
2022-09-10T08:53:29.482Z,13.50
2022-09-10T08:56:03.108Z,13.40
2022-09-10T08:58:38.058Z,13.50
2022-09-10T09:01:08.330Z,13.60
2022-09-10T09:03:41.533Z,13.70
2022-09-10T09:06:19.221Z,13.70
2022-09-10T09:08:49.728Z,13.70
2022-09-10T09:11:26.396Z,13.80
2022-09-10T09:14:07.059Z,13.80
2022-09-10T09:16:46.750Z,13.80
2022-09-10T09:19:22.718Z,13.80
2022-09-10T09:21:53.246Z,13.80
2022-09-10T09:24:25.489Z,13.80
2022-09-10T09:27:01.203Z,13.80
2022-09-10T09:29:33.351Z,13.70
2022-09-10T09:32:06.674Z,13.70
2022-09-10T09:34:37.114Z,13.60
2022-09-10T09:37:14.362Z,13.60
2022-09-10T09:39:44.752Z,13.50
2022-09-10T09:42:19.759Z,13.60
2022-09-10T09:44:56.875Z,13.50
2022-09-10T09:47:28.445Z,13.50
2022-09-10T09:49:57.504Z,13.50
2022-09-10T09:52:27.590Z,13.40
2022-09-10T09:55:15.454Z,13.30
2022-09-10T09:57:44.714Z,13.40
2022-09-10T10:00:31.902Z,13.40
2022-09-10T10:03:06.136Z,13.60
2022-09-10T10:05:36.214Z,13.50
2022-09-10T10:08:04.849Z,13.50
2022-09-10T10:10:33.599Z,13.60
2022-09-10T10:13:02.489Z,13.60
2022-09-10T10:15:36.592Z,13.60
2022-09-10T10:18:24.959Z,13.70
2022-09-10T10:21:12.205Z,13.70
2022-09-10T10:23:40.954Z,13.80
2022-09-10T10:26:28.858Z,13.90
2022-09-10T10:28:59.943Z,13.90
2022-09-10T10:31:35.533Z,13.90
2022-09-10T10:34:14.856Z,13.90
2022-09-10T10:36:48.669Z,13.90
2022-09-10T10:39:24.352Z,14.10
2022-09-10T10:41:58.711Z,14.10
2022-09-10T10:44:33.760Z,14.30
2022-09-10T10:47:11.755Z,14.30
2022-09-10T10:49:48.068Z,14.40
2022-09-10T10:52:21.358Z,14.60
2022-09-10T10:54:58.875Z,14.70
2022-09-10T10:57:29.874Z,14.80
2022-09-10T11:00:02.246Z,14.80
2022-09-10T11:02:36.183Z,14.70
2022-09-10T11:05:16.656Z,14.70
2022-09-10T11:07:46.758Z,14.70
2022-09-10T11:10:16.935Z,14.70
2022-09-10T11:12:47.477Z,14.60
2022-09-10T11:15:20.687Z,14.50
2022-09-10T11:17:51.759Z,14.40
2022-09-10T11:20:28.821Z,14.40
2022-09-10T11:23:03.997Z,14.40
2022-09-10T11:25:36.242Z,14.40
2022-09-10T11:28:11.125Z,14.30
2022-09-10T11:30:42.280Z,14.50
2022-09-10T11:33:16.625Z,14.40
2022-09-10T11:35:48.634Z,14.40
2022-09-10T11:38:22.380Z,14.30
2022-09-10T11:40:53.672Z,14.30
2022-09-10T11:43:27.186Z,14.30
2022-09-10T11:45:57.199Z,14.40
2022-09-10T11:48:30.333Z,14.30
2022-09-10T11:51:02.295Z,14.20
2022-09-10T11:53:31.295Z,15.10
2022-09-10T11:56:08.051Z,14.20
2022-09-10T11:58:44.022Z,14.30
2022-09-10T12:01:14.737Z,14.30
2022-09-10T12:03:54.340Z,14.10
2022-09-10T12:06:27.788Z,14.20
2022-09-10T12:09:01.979Z,14.30
2022-09-10T12:11:36.271Z,14.40
2022-09-10T12:14:06.993Z,14.50
2022-09-10T12:16:38.123Z,14.40
2022-09-10T12:19:08.841Z,14.40
2022-09-10T12:21:41.369Z,14.50
2022-09-10T12:24:24.340Z,14.40
2022-09-10T12:26:54.093Z,14.50
2022-09-10T12:29:27.884Z,14.60
2022-09-10T12:32:15.234Z,14.60
2022-09-10T12:34:46.997Z,14.60
2022-09-10T12:37:24.455Z,14.60
2022-09-10T12:40:11.240Z,14.60
2022-09-10T12:42:45.329Z,14.50
2022-09-10T12:45:14.134Z,14.60
2022-09-10T12:47:50.564Z,14.60
2022-09-10T12:50:21.611Z,14.50
2022-09-10T12:53:02.931Z,14.50
2022-09-10T12:55:39.117Z,14.50
2022-09-10T12:58:13.087Z,14.50
2022-09-10T13:00:46.734Z,14.50
2022-09-10T13:03:17.170Z,14.50
2022-09-10T13:05:50.506Z,14.50
2022-09-10T13:08:21.780Z,14.60
2022-09-10T13:11:07.205Z,14.50
2022-09-10T13:13:37.553Z,14.50
2022-09-10T13:16:07.391Z,14.50
2022-09-10T13:18:36.896Z,14.50
2022-09-10T13:21:24.279Z,14.40
2022-09-10T13:23:54.938Z,14.40
2022-09-10T13:26:48.638Z,14.50
2022-09-10T13:29:32.642Z,14.50
2022-09-10T13:32:06.552Z,14.50
2022-09-10T13:34:53.156Z,14.40
2022-09-10T13:37:32.450Z,14.40
2022-09-10T13:40:10.521Z,14.30
2022-09-10T13:42:46.683Z,14.30
2022-09-10T13:45:21.930Z,14.30
2022-09-10T13:47:52.758Z,14.30
2022-09-10T13:50:24.130Z,14.30
2022-09-10T13:52:55.051Z,14.20
2022-09-10T13:55:27.027Z,14.30
2022-09-10T13:57:58.011Z,14.30
2022-09-10T14:00:29.036Z,14.40
2022-09-10T14:03:00.056Z,14.40
2022-09-10T14:05:31.618Z,14.30
2022-09-10T14:08:02.955Z,14.30
2022-09-10T14:10:34.739Z,14.30
2022-09-10T14:13:03.540Z,14.30
2022-09-10T14:15:36.472Z,14.20
2022-09-10T14:18:05.499Z,14.10
2022-09-10T14:20:35.056Z,14.10
2022-09-10T14:23:04.939Z,14.00
2022-09-10T14:25:35.832Z,13.90
2022-09-10T14:28:28.574Z,13.90
2022-09-10T14:31:19.183Z,13.90
2022-09-10T14:33:47.946Z,13.90
2022-09-10T14:36:18.260Z,13.90
2022-09-10T14:38:54.496Z,13.60
2022-09-10T14:41:25.847Z,13.80
2022-09-10T14:44:09.438Z,13.80
2022-09-10T14:46:52.439Z,13.70
2022-09-10T14:49:26.452Z,13.50
2022-09-10T14:51:55.349Z,13.60
2022-09-10T14:54:24.565Z,13.60
2022-09-10T14:56:55.342Z,13.50
2022-09-10T14:59:29.737Z,13.50
2022-09-10T15:01:59.160Z,13.50
2022-09-10T15:04:30.167Z,13.50
2022-09-10T15:06:59.542Z,13.50
2022-09-10T15:09:29.159Z,13.50
2022-09-10T15:12:01.873Z,13.50
2022-09-10T15:14:31.752Z,13.50
2022-09-10T15:17:00.724Z,13.50
2022-09-10T15:19:29.443Z,13.50
2022-09-10T15:21:58.659Z,13.50
2022-09-10T15:24:28.410Z,13.50
2022-09-10T15:26:57.725Z,13.60
2022-09-10T15:29:27.584Z,13.60
2022-09-10T15:31:59.584Z,13.70
2022-09-10T15:34:28.674Z,13.70
2022-09-10T15:36:57.355Z,13.60
2022-09-10T15:39:26.104Z,13.60
2022-09-10T15:41:54.734Z,13.60
2022-09-10T15:44:23.903Z,13.60
2022-09-10T15:46:53.869Z,13.60
2022-09-10T15:49:22.487Z,13.50
2022-09-10T15:51:51.286Z,13.50
2022-09-10T15:54:20.967Z,13.40
2022-09-10T15:56:49.716Z,13.30
2022-09-10T15:59:18.378Z,13.20
2022-09-10T16:01:47.628Z,13.20
2022-09-10T16:04:17.742Z,13.20
2022-09-10T16:06:46.363Z,13.10
2022-09-10T16:09:15.304Z,13.10
2022-09-10T16:11:44.438Z,13.10
2022-09-10T16:14:13.973Z,13.10
2022-09-10T16:16:42.806Z,13.10
2022-09-10T16:19:12.982Z,13.10
2022-09-10T16:21:43.525Z,13.10
2022-09-10T16:24:12.255Z,13.10
2022-09-10T16:26:41.509Z,13.10
2022-09-10T16:29:13.705Z,13.10
2022-09-10T16:31:43.094Z,13.10
2022-09-10T16:34:12.550Z,13.00
2022-09-10T16:36:41.484Z,13.00
2022-09-10T16:39:13.293Z,13.00
2022-09-10T16:41:42.551Z,12.90
2022-09-10T16:44:11.278Z,13.00
2022-09-10T16:46:40.066Z,12.90
2022-09-10T16:49:12.547Z,12.80
2022-09-10T16:51:42.251Z,12.90
2022-09-10T16:54:13.617Z,12.80
2022-09-10T16:56:43.235Z,12.80
2022-09-10T16:59:15.046Z,12.80
2022-09-10T17:01:44.248Z,12.80
2022-09-10T17:04:18.553Z,12.80
2022-09-10T17:06:48.032Z,12.80
2022-09-10T17:09:18.405Z,12.80
2022-09-10T17:11:47.084Z,12.70
2022-09-10T17:14:15.649Z,12.20
2022-09-10T17:16:44.929Z,12.70
2022-09-10T17:19:15.175Z,12.60
2022-09-10T17:21:44.537Z,12.60
2022-09-10T17:24:13.782Z,12.60
2022-09-10T17:26:43.799Z,12.60
2022-09-10T17:29:14.655Z,12.60
2022-09-10T17:31:43.801Z,12.60
2022-09-10T17:34:13.696Z,12.60
2022-09-10T17:36:43.426Z,12.50
2022-09-10T17:39:12.098Z,12.60
2022-09-10T17:41:40.706Z,12.60
2022-09-10T17:44:11.302Z,12.60
2022-09-10T17:46:40.351Z,12.60
2022-09-10T17:49:08.925Z,12.50
2022-09-10T17:51:37.486Z,12.50
2022-09-10T17:54:06.267Z,12.50
2022-09-10T17:56:37.770Z,16.50
2022-09-10T17:59:06.725Z,12.50
2022-09-10T18:01:38.839Z,12.40
2022-09-10T18:04:08.404Z,12.30
2022-09-10T18:06:37.846Z,12.40
2022-09-10T18:09:07.334Z,12.30
2022-09-10T18:11:36.802Z,12.30
2022-09-10T18:14:05.820Z,12.30
2022-09-10T18:16:35.215Z,12.20
2022-09-10T18:19:12.895Z,12.20
2022-09-10T18:21:42.663Z,12.20
2022-09-10T18:24:12.338Z,12.10
2022-09-10T18:26:42.815Z,12.10
2022-09-10T18:29:13.812Z,12.20
2022-09-10T18:31:45.167Z,12.10
2022-09-10T18:34:20.834Z,12.10
2022-09-10T18:36:53.585Z,12.20
2022-09-10T18:39:22.703Z,12.10
2022-09-10T18:41:51.803Z,12.00
2022-09-10T18:44:21.820Z,12.00
2022-09-10T18:46:51.073Z,12.10
2022-09-10T18:49:23.520Z,12.00
2022-09-10T18:51:53.133Z,12.00
2022-09-10T18:54:22.576Z,11.90
2022-09-10T18:56:51.398Z,12.00
2022-09-10T18:59:21.275Z,12.00
2022-09-10T19:01:50.626Z,12.30
2022-09-10T19:04:20.227Z,12.00
2022-09-10T19:06:50.282Z,12.10
2022-09-10T19:09:20.134Z,12.20
2022-09-10T19:11:49.644Z,11.90
2022-09-10T19:14:19.772Z,12.00
2022-09-10T19:16:49.052Z,12.00
2022-09-10T19:19:19.285Z,12.00
2022-09-10T19:21:48.519Z,12.00
2022-09-10T19:24:25.372Z,12.10
2022-09-10T19:27:02.000Z,12.00
2022-09-10T19:29:30.737Z,12.00
2022-09-10T19:32:00.768Z,11.90
2022-09-10T19:34:30.308Z,12.00
2022-09-10T19:36:59.058Z,12.00
2022-09-10T19:39:28.897Z,12.00
2022-09-10T19:41:57.416Z,12.00
2022-09-10T19:44:26.128Z,12.00
2022-09-10T19:46:55.296Z,12.00
2022-09-10T19:49:23.947Z,11.90
2022-09-10T19:51:52.592Z,12.00
2022-09-10T19:54:22.743Z,12.00
2022-09-10T19:56:52.761Z,11.90
2022-09-10T19:59:22.807Z,11.90
2022-09-10T20:01:51.527Z,11.90
2022-09-10T20:04:20.340Z,11.90
2022-09-10T20:06:50.412Z,11.90
2022-09-10T20:09:19.140Z,11.90
2022-09-10T20:11:47.727Z,11.90
2022-09-10T20:14:17.785Z,11.90
2022-09-10T20:16:46.814Z,12.00
2022-09-10T20:19:18.221Z,12.00
2022-09-10T20:21:47.876Z,11.90
2022-09-10T20:24:17.055Z,11.90
2022-09-10T20:26:46.659Z,11.90
2022-09-10T20:29:17.969Z,11.90
2022-09-10T20:31:47.095Z,11.90
2022-09-10T20:34:16.711Z,11.90
2022-09-10T20:36:45.313Z,11.90
2022-09-10T20:39:14.809Z,11.90
2022-09-10T20:41:43.839Z,11.80
2022-09-10T20:44:13.974Z,11.90
2022-09-10T20:46:44.282Z,11.80
2022-09-10T20:49:13.784Z,11.80
2022-09-10T20:51:42.680Z,11.80
2022-09-10T20:54:12.594Z,11.80
2022-09-10T20:56:41.518Z,11.80
2022-09-10T20:59:10.325Z,11.80
2022-09-10T21:01:39.817Z,11.80
2022-09-10T21:04:10.553Z,11.80
2022-09-10T21:06:40.810Z,11.80
2022-09-10T21:09:09.289Z,11.80
2022-09-10T21:11:38.166Z,11.90
2022-09-10T21:14:07.649Z,11.90
2022-09-10T21:16:37.197Z,11.40
2022-09-10T21:19:07.880Z,11.80
2022-09-10T21:21:39.841Z,11.60
2022-09-10T21:24:09.636Z,12.00
2022-09-10T21:26:39.560Z,11.70
2022-09-10T21:29:10.746Z,11.80
2022-09-10T21:31:39.778Z,12.00
2022-09-10T21:34:08.843Z,11.70
2022-09-10T21:36:40.235Z,11.80
2022-09-10T21:39:12.572Z,11.80
2022-09-10T21:41:42.564Z,11.80
2022-09-10T21:44:16.847Z,12.10
2022-09-10T21:46:45.732Z,11.80
2022-09-10T21:49:14.923Z,11.30
2022-09-10T21:51:45.217Z,11.70
2022-09-10T21:54:14.680Z,11.70
2022-09-10T21:56:43.176Z,11.70
2022-09-10T21:59:13.048Z,11.70
2022-09-10T22:01:43.762Z,11.70
2022-09-10T22:04:13.418Z,11.60
2022-09-10T22:06:42.171Z,11.70
2022-09-10T22:09:13.309Z,11.70
2022-09-10T22:11:42.890Z,11.70
2022-09-10T22:14:13.643Z,11.70
2022-09-10T22:16:42.302Z,11.70
2022-09-10T22:19:12.299Z,11.60
2022-09-10T22:21:41.382Z,11.60
2022-09-10T22:24:10.489Z,11.50
2022-09-10T22:26:43.387Z,11.50
2022-09-10T22:29:12.867Z,11.50
2022-09-10T22:31:41.526Z,11.50
2022-09-10T22:34:13.348Z,11.50
2022-09-10T22:36:42.533Z,11.50
2022-09-10T22:39:12.927Z,11.50
2022-09-10T22:41:43.785Z,11.50
2022-09-10T22:44:12.792Z,11.50
2022-09-10T22:46:41.848Z,11.50
2022-09-10T22:49:11.048Z,11.50
2022-09-10T22:51:41.106Z,11.50
2022-09-10T22:54:10.771Z,11.50
2022-09-10T22:56:39.764Z,11.50
2022-09-10T22:59:12.172Z,11.60
2022-09-10T23:01:40.856Z,11.60
2022-09-10T23:04:09.450Z,11.50
2022-09-10T23:06:39.075Z,11.50
2022-09-10T23:09:08.811Z,11.50
2022-09-10T23:11:37.738Z,11.50
2022-09-10T23:14:07.366Z,11.50
2022-09-10T23:16:38.308Z,11.50
2022-09-10T23:19:07.755Z,11.40
2022-09-10T23:21:36.843Z,11.40
2022-09-10T23:24:06.766Z,11.40
2022-09-10T23:26:35.321Z,11.40
2022-09-10T23:29:04.496Z,11.30
2022-09-10T23:31:34.287Z,11.30
2022-09-10T23:34:05.237Z,11.30
2022-09-10T23:36:35.478Z,11.30
2022-09-10T23:39:05.532Z,11.30
2022-09-10T23:41:34.620Z,11.40
2022-09-10T23:44:03.274Z,11.30
2022-09-10T23:46:32.080Z,11.30
2022-09-10T23:49:00.644Z,11.40
2022-09-10T23:51:31.269Z,11.30
2022-09-10T23:53:59.867Z,11.30
2022-09-10T23:56:29.337Z,11.30
2022-09-10T23:58:59.573Z,11.40
